Terminal Aerodrome Forecast
Issued by NWS

Home | Current Version | Previous Version | Text Only | Print | Product List | Glossary On
Versions: 1 2 3 4 5 6 7 8 9 10 11 12
581
FTUS45 KABQ 220539
TAFROW
TAF
KROW 220539Z 2206/2306 29022G32KT P6SM SKC
      TEMPO 2206/2210 30032G42KT
     FM221100 32012G20KT P6SM SKC
     FM222300 28010KT P6SM SCT130=

USA.gov is the U.S. government's official web portal to all federal, state and local government web resources and services.